Celebrity Century — 9HJI9 — position and weather

sailwx.info

Track history (hours):
 
Tides and Currents Weather Stations Pressure Air Temp Water Temp Dewpoint Dewpoint Depression Visibility Wind Speed Wind Dir Waves Ship Positions

Celebrity Century

Last reported at 2019-Aug-24 17:32 UTC. Time now 2019-Aug-24 19:52 UTC.
Position N 37°14' E 024°48'.

Length 251 m; draft 8 m.

Type: Ship. MMSI: 249054000.

Date/timePositionNaut miles runAvg speedWind from/ knotsBaromVisibWave heightAir tempDewpointWater temp
2019-Aug-24 17:32N 37°14' E 024°48'011.1
2019-Aug-24 17:30N 37°14' E 024°48'611.3
2019-Aug-24 17:00N 37°17' E 024°54'611.6
2019-Aug-24 16:30N 37°21' E 024°60'611.3
2019-Aug-24 16:00N 37°25' E 025°05'510.7
2019-Aug-24 15:30N 37°27' E 025°11'510.3
2019-Aug-24 15:00N 37°28' E 025°17'1 2.4
2019-Aug-24 14:24N 37°28' E 025°19'0 0.0
2019-Aug-24 13:57N 37°28' E 025°19'0 0.0
2019-Aug-24 13:24N 37°28' E 025°19'0 0.0
2019-Aug-24 12:57N 37°28' E 025°19'0 0.0
2019-Aug-24 12:24N 37°28' E 025°19'0 0.0
2019-Aug-24 12:00N 37°28' E 025°19'0 0.0
2019-Aug-24 11:30N 37°28' E 025°19'0 0.0
2019-Aug-24 11:00N 37°28' E 025°19'0 0.0
2019-Aug-24 10:27N 37°28' E 025°19'0 0.0
2019-Aug-24 09:57N 37°28' E 025°19'0 0.0
2019-Aug-24 09:27N 37°28' E 025°19'0 0.0
2019-Aug-24 08:54N 37°28' E 025°19'0 0.0
2019-Aug-24 08:18N 37°28' E 025°19'0 0.0
2019-Aug-24 08:00N 37°28' E 025°19'0 0.0
2019-Aug-24 07:21N 37°28' E 025°19'0 0.0
2019-Aug-24 07:00N 37°28' E 025°19'0 0.0
2019-Aug-24 06:30N 37°28' E 025°19'0 0.0
2019-Aug-24 05:57N 37°28' E 025°19'0 0.0
2019-Aug-24 05:27N 37°28' E 025°19'0 0.0
2019-Aug-24 04:54N 37°28' E 025°19'0 0.0
2019-Aug-24 04:31N 37°28' E 025°19'0 0.0
2019-Aug-24 04:00N 37°28' E 025°19'1 2.0
2019-Aug-24 03:30N 37°27' E 025°18'612.1
2019-Aug-24 03:01N 37°27' E 025°11'611.1
2019-Aug-24 02:31N 37°22' E 025°07'713.4
2019-Aug-24 01:58N 37°16' E 025°03'511.7
2019-Aug-24 01:30N 37°11' E 025°00'418 9.4
2019-Aug-22 04:59N 37°41' E 016°16'918.2
2019-Aug-22 04:30N 37°44' E 016°05'918.1
2019-Aug-22 04:00N 37°48' E 015°55'918.1
2019-Aug-22 03:31N 37°51' E 015°45'917.8
2019-Aug-22 03:00N 37°57' E 015°36'918.5
2019-Aug-22 02:30N 38°06' E 015°34'917.4
2019-Aug-22 02:01N 38°14' E 015°36'816.3
2019-Aug-22 01:31N 38°20' E 015°44'815.3
2019-Aug-22 01:01N 38°23' E 015°35'1019.5
2019-Aug-22 00:30N 38°30' E 015°27'1019.5
2019-Aug-22 00:00N 38°38' E 015°19'1019.3
2019-Aug-21 23:31N 38°45' E 015°11'1019.0
2019-Aug-21 23:00N 38°53' E 015°05'4819.1
2019-Aug-21 20:28N 39°38' E 014°40'919.2
2019-Aug-21 20:00N 39°46' E 014°35'1219.1
2019-Aug-21 19:23N 39°57' E 014°29'719.1
2019-Aug-21 19:00N 40°03' E 014°25'919.1
2019-Aug-21 18:31N 40°12' E 014°20'1019.4
2019-Aug-21 18:00N 40°21' E 014°15'1019.3
2019-Aug-21 17:30N 40°30' E 014°10'917.9
2019-Aug-21 17:01N 40°39' E 014°12'918.2
2019-Aug-21 16:31N 40°47' E 014°16'3 6.6
2019-Aug-21 15:59N 40°50' E 014°16'0 0.0
2019-Aug-21 15:29N 40°50' E 014°16'0 0.0
2019-Aug-21 14:59N 40°50' E 014°16'0 0.0
2019-Aug-21 14:29N 40°50' E 014°16'0 0.0
2019-Aug-21 13:59N 40°50' E 014°16'0 0.0
2019-Aug-21 13:29N 40°50' E 014°16'0 0.0
2019-Aug-21 12:59N 40°50' E 014°16'0 0.0
2019-Aug-21 12:29N 40°50' E 014°16'0 0.0
2019-Aug-21 11:59N 40°50' E 014°16'0 0.0
2019-Aug-21 11:29N 40°50' E 014°16'0 0.0
2019-Aug-21 10:59N 40°50' E 014°16'0 0.0
2019-Aug-21 10:29N 40°50' E 014°16'0 0.0
2019-Aug-21 09:59N 40°50' E 014°16'0 0.0
2019-Aug-21 09:29N 40°50' E 014°16'0 0.0
2019-Aug-21 08:59N 40°50' E 014°16'0 0.0
2019-Aug-21 08:29N 40°50' E 014°16'0 0.0
2019-Aug-21 07:59N 40°50' E 014°16'0 0.0
2019-Aug-21 07:29N 40°50' E 014°16'0 0.0
2019-Aug-21 06:59N 40°50' E 014°16'0 0.0
2019-Aug-21 06:29N 40°50' E 014°16'0 0.0
2019-Aug-21 05:59N 40°50' E 014°16'0 0.0
2019-Aug-21 05:29N 40°50' E 014°16'0 0.0
2019-Aug-21 04:56N 40°50' E 014°16'0 0.0
2019-Aug-21 04:29N 40°50' E 014°16'0 0.0
2019-Aug-21 03:59N 40°50' E 014°16'0 0.4
2019-Aug-21 03:30N 40°50' E 014°16'2 5.0
2019-Aug-21 03:00N 40°48' E 014°17'510.5
2019-Aug-21 02:30N 40°43' E 014°15'816.4
2019-Aug-21 02:00N 40°36' E 014°10'816.2
2019-Aug-21 01:30N 40°28' E 014°11'917.0
2019-Aug-21 01:00N 40°20' E 014°15'917.1
2019-Aug-21 00:30N 40°12' E 014°21'917.3
2019-Aug-21 00:00N 40°05' E 014°25'917.3
2019-Aug-20 23:30N 39°57' E 014°30'917.2
2019-Aug-20 23:00N 39°49' E 014°35'2817.1
2019-Aug-20 21:23N 39°24' E 014°50'617.2
2019-Aug-20 21:00N 39°18' E 014°54'917.0
2019-Aug-20 20:30N 39°10' E 014°58'1317.1
2019-Aug-20 19:45N 38°58' E 015°04'517.4
2019-Aug-20 19:30N 38°54' E 015°07'613.1
2019-Aug-20 19:00N 38°48' E 015°10'0 0.4
2019-Aug-20 18:24N 38°48' E 015°10'3 8.1
2019-Aug-20 18:00N 38°45' E 015°12'917.7
2019-Aug-20 17:30N 38°39' E 015°19'918.6
2019-Aug-20 17:00N 38°32' E 015°27'918.8
2019-Aug-20 16:30N 38°25' E 015°35'816.4
2019-Aug-20 16:00N 38°19' E 015°42'612.8
2019-Aug-20 15:30N 38°14' E 015°37'714.4
2019-Aug-20 15:00N 38°07' E 015°36'916.9
2019-Aug-20 14:30N 37°58' E 015°36'816.3
2019-Aug-20 14:00N 37°53' E 015°44'917.0
2019-Aug-20 13:30N 37°51' E 015°54'4018.2
2019-Aug-20 11:19N 38°11' E 016°38'29115.8
2019-Aug-19 16:52N 43°01' E 016°24'59 4.1
2019-Aug-19 02:24N 43°38' E 015°20'719.0
2019-Aug-19 02:00N 43°41' E 015°10'919.1
2019-Aug-19 01:30N 43°44' E 014°58'919.0
2019-Aug-19 01:01N 43°48' E 014°47'1019.1
2019-Aug-19 00:30N 43°53' E 014°35'1019.0
2019-Aug-19 00:00N 43°58' E 014°23'1019.1
2019-Aug-18 23:30N 44°02' E 014°12'918.9
2019-Aug-18 23:01N 44°07' E 014°01'919.0
2019-Aug-18 22:31N 44°15' E 013°53'1019.0
2019-Aug-18 22:00N 44°23' E 013°46'918.8
2019-Aug-18 21:31N 44°31' E 013°39'918.8
2019-Aug-18 21:00N 44°39' E 013°32'918.7
2019-Aug-18 20:31N 44°47' E 013°24'919.0
2019-Aug-18 20:01N 44°54' E 013°16'918.9
2019-Aug-18 19:31N 45°01' E 013°07'1019.1
2019-Aug-18 19:01N 45°07' E 012°57'1019.2
2019-Aug-18 18:31N 45°14' E 012°47'918.8
2019-Aug-18 18:00N 45°19' E 012°36'713.4
2019-Aug-18 17:30N 45°24' E 012°29'4 8.6
2019-Aug-18 17:00N 45°26' E 012°24'2 4.2
2019-Aug-18 16:30N 45°26' E 012°21'2 3.4
2019-Aug-18 16:00N 45°26' E 012°18'0 0.7
2019-Aug-18 15:28N 45°26' E 012°18'0 0.0
2019-Aug-18 14:58N 45°26' E 012°18'0 0.0
2019-Aug-18 14:25N 45°26' E 012°18'0 0.0
2019-Aug-18 13:58N 45°26' E 012°18'0 0.0
2019-Aug-18 13:28N 45°26' E 012°18'0 0.0
2019-Aug-18 12:58N 45°26' E 012°18'0 0.0
2019-Aug-18 12:28N 45°26' E 012°18'0 0.0
2019-Aug-18 11:58N 45°26' E 012°18'0 0.0
2019-Aug-18 11:28N 45°26' E 012°18'0 0.0
2019-Aug-18 10:58N 45°26' E 012°18'0 0.0
2019-Aug-18 10:28N 45°26' E 012°18'0 0.0
2019-Aug-18 10:00N 45°26' E 012°18'1 1.7
2019-Aug-18 09:30N 45°26' E 012°19'2 4.4
2019-Aug-18 09:00N 45°25' E 012°22'3 5.7
2019-Aug-18 08:30N 45°25' E 012°26'2 3.9
2019-Aug-18 08:00N 45°24' E 012°29'2 1.8
2019-Aug-18 06:58N 45°24' E 012°32'0 0.1
2019-Aug-18 06:28N 45°24' E 012°32'0 0.0
2019-Aug-18 05:58N 45°24' E 012°32'0 0.0
2019-Aug-18 05:28N 45°24' E 012°32'0 0.0
2019-Aug-18 04:58N 45°24' E 012°32'0 0.0
2019-Aug-18 04:28N 45°24' E 012°32'0 0.0
2019-Aug-18 03:58N 45°24' E 012°32'0 0.1
2019-Aug-18 03:30N 45°24' E 012°32'4 8.3
2019-Aug-18 03:01N 45°20' E 012°32'5 9.7
2019-Aug-18 02:30N 45°15' E 012°35'713.2
2019-Aug-18 02:00N 45°11' E 012°42'714.6
2019-Aug-18 01:30N 45°07' E 012°50'713.1
2019-Aug-18 01:00N 45°01' E 012°55'3 6.4
2019-Aug-18 00:30N 44°58' E 012°56'0 0.7
2019-Aug-18 00:00N 44°58' E 012°56'0 0.5
2019-Aug-17 23:30N 44°58' E 012°55'3 5.8
2019-Aug-17 23:00N 44°55' E 012°56'714.5
2019-Aug-17 22:30N 44°49' E 013°00'714.7
2019-Aug-17 22:00N 44°42' E 013°04'714.9
2019-Aug-17 21:30N 44°34' E 013°07'815.6
2019-Aug-17 21:00N 44°27' E 013°10'815.7
2019-Aug-17 20:30N 44°20' E 013°14'815.6
2019-Aug-17 20:00N 44°14' E 013°22'815.6
2019-Aug-17 19:30N 44°10' E 013°30'815.7
2019-Aug-17 19:00N 44°04' E 013°39'816.1
2019-Aug-17 18:30N 43°59' E 013°47'1514.6
2019-Aug-17 17:30N 43°45' E 013°44'815.9
2019-Aug-17 17:00N 43°40' E 013°35'4 7.4
2019-Aug-17 16:26N 43°37' E 013°30'0 0.5
2019-Aug-17 15:58N 43°37' E 013°30'0 0.0
2019-Aug-17 15:25N 43°37' E 013°30'0 0.0
2019-Aug-17 14:58N 43°37' E 013°30'0 0.0
2019-Aug-17 11:43N 43°37' E 013°30'0 0.0
2019-Aug-17 11:13N 43°37' E 013°30'0 0.0
2019-Aug-17 10:49N 43°37' E 013°30'0 0.0
2019-Aug-17 08:43N 43°37' E 013°30'0 0.0
2019-Aug-17 07:58N 43°37' E 013°30'356 8.7
2019-Aug-15 15:17N 38°11' E 016°38'3718.7
2019-Aug-15 13:17N 37°51' E 015°58'518.2
2019-Aug-15 13:00N 37°50' E 015°52'917.6
2019-Aug-15 12:30N 37°52' E 015°41'918.3
2019-Aug-15 12:00N 37°60' E 015°34'816.4
2019-Aug-15 11:30N 38°08' E 015°35'4 6.9
2019-Aug-15 10:59N 38°12' E 015°33'0 0.0
2019-Aug-15 10:29N 38°12' E 015°33'0 0.0
2019-Aug-15 09:59N 38°12' E 015°33'0 0.0
2019-Aug-15 09:23N 38°12' E 015°33'0 0.0
2019-Aug-15 08:59N 38°12' E 015°33'0 0.0
2019-Aug-15 08:17N 38°12' E 015°33'0 0.0
2019-Aug-15 07:59N 38°12' E 015°33'0 0.0
2019-Aug-15 07:23N 38°12' E 015°33'0 0.0
2019-Aug-15 06:59N 38°12' E 015°33'0 0.0
2019-Aug-15 06:29N 38°12' E 015°33'0 0.0
2019-Aug-15 05:59N 38°12' E 015°33'0 0.0
2019-Aug-15 05:29N 38°12' E 015°33'0 0.0
2019-Aug-15 04:53N 38°12' E 015°33'0 0.3
2019-Aug-15 04:30N 38°12' E 015°34'510.1
2019-Aug-15 04:01N 38°15' E 015°38'612.5
2019-Aug-15 03:31N 38°21' E 015°39'612.9
2019-Aug-15 03:00N 38°27' E 015°35'815.7
2019-Aug-15 02:30N 38°34' E 015°30'815.6
2019-Aug-15 02:00N 38°41' E 015°25'815.3
2019-Aug-15 01:30N 38°48' E 015°22'714.5
2019-Aug-15 01:00N 38°55' E 015°18'7215.2
2019-Aug-14 20:14N 39°58' E 014°32'415.4
2019-Aug-14 20:00N 40°01' E 014°30'815.3
2019-Aug-14 19:31N 40°08' E 014°26'815.4
2019-Aug-14 19:01N 40°15' E 014°21'815.5
2019-Aug-14 18:31N 40°21' E 014°17'814.9
2019-Aug-14 17:59N 40°28' E 014°12'  
Track history (hours):
 
Tides and Currents Weather Stations Pressure Air Temp Water Temp Dewpoint Dewpoint Depression Visibility Wind Speed Wind Dir Waves Ship Positions

Celebrity Century

Last reported at 2019-Aug-24 17:32 UTC. Time now 2019-Aug-24 19:52 UTC.
Position N 37°14' E 024°48'.

Length 251 m; draft 8 m.

Type: Ship. MMSI: 249054000.

Date/timePositionNaut miles runAvg speedWind from/ knotsBaromVisibWave heightAir tempDewpointWater temp
2019-Aug-24 17:32N 37°14' E 024°48'011.1
2019-Aug-24 17:30N 37°14' E 024°48'611.3
2019-Aug-24 17:00N 37°17' E 024°54'611.6
2019-Aug-24 16:30N 37°21' E 024°60'611.3
2019-Aug-24 16:00N 37°25' E 025°05'510.7
2019-Aug-24 15:30N 37°27' E 025°11'510.3
2019-Aug-24 15:00N 37°28' E 025°17'1 2.4
2019-Aug-24 14:24N 37°28' E 025°19'0 0.0
2019-Aug-24 13:57N 37°28' E 025°19'0 0.0
2019-Aug-24 13:24N 37°28' E 025°19'0 0.0
2019-Aug-24 12:57N 37°28' E 025°19'0 0.0
2019-Aug-24 12:24N 37°28' E 025°19'0 0.0
2019-Aug-24 12:00N 37°28' E 025°19'0 0.0
2019-Aug-24 11:30N 37°28' E 025°19'0 0.0
2019-Aug-24 11:00N 37°28' E 025°19'0 0.0
2019-Aug-24 10:27N 37°28' E 025°19'0 0.0
2019-Aug-24 09:57N 37°28' E 025°19'0 0.0
2019-Aug-24 09:27N 37°28' E 025°19'0 0.0
2019-Aug-24 08:54N 37°28' E 025°19'0 0.0
2019-Aug-24 08:18N 37°28' E 025°19'0 0.0
2019-Aug-24 08:00N 37°28' E 025°19'0 0.0
2019-Aug-24 07:21N 37°28' E 025°19'0 0.0
2019-Aug-24 07:00N 37°28' E 025°19'0 0.0
2019-Aug-24 06:30N 37°28' E 025°19'0 0.0
2019-Aug-24 05:57N 37°28' E 025°19'0 0.0
2019-Aug-24 05:27N 37°28' E 025°19'0 0.0
2019-Aug-24 04:54N 37°28' E 025°19'0 0.0
2019-Aug-24 04:31N 37°28' E 025°19'0 0.0
2019-Aug-24 04:00N 37°28' E 025°19'1 2.0
2019-Aug-24 03:30N 37°27' E 025°18'612.1
2019-Aug-24 03:01N 37°27' E 025°11'611.1
2019-Aug-24 02:31N 37°22' E 025°07'713.4
2019-Aug-24 01:58N 37°16' E 025°03'511.7
2019-Aug-24 01:30N 37°11' E 025°00'418 9.4
2019-Aug-22 04:59N 37°41' E 016°16'918.2
2019-Aug-22 04:30N 37°44' E 016°05'918.1
2019-Aug-22 04:00N 37°48' E 015°55'918.1
2019-Aug-22 03:31N 37°51' E 015°45'917.8
2019-Aug-22 03:00N 37°57' E 015°36'918.5
2019-Aug-22 02:30N 38°06' E 015°34'917.4
2019-Aug-22 02:01N 38°14' E 015°36'816.3
2019-Aug-22 01:31N 38°20' E 015°44'815.3
2019-Aug-22 01:01N 38°23' E 015°35'1019.5
2019-Aug-22 00:30N 38°30' E 015°27'1019.5
2019-Aug-22 00:00N 38°38' E 015°19'1019.3
2019-Aug-21 23:31N 38°45' E 015°11'1019.0
2019-Aug-21 23:00N 38°53' E 015°05'4819.1
2019-Aug-21 20:28N 39°38' E 014°40'919.2
2019-Aug-21 20:00N 39°46' E 014°35'1219.1
2019-Aug-21 19:23N 39°57' E 014°29'719.1
2019-Aug-21 19:00N 40°03' E 014°25'919.1
2019-Aug-21 18:31N 40°12' E 014°20'1019.4
2019-Aug-21 18:00N 40°21' E 014°15'1019.3
2019-Aug-21 17:30N 40°30' E 014°10'917.9
2019-Aug-21 17:01N 40°39' E 014°12'918.2
2019-Aug-21 16:31N 40°47' E 014°16'3 6.6
2019-Aug-21 15:59N 40°50' E 014°16'0 0.0
2019-Aug-21 15:29N 40°50' E 014°16'0 0.0
2019-Aug-21 14:59N 40°50' E 014°16'0 0.0
2019-Aug-21 14:29N 40°50' E 014°16'0 0.0
2019-Aug-21 13:59N 40°50' E 014°16'0 0.0
2019-Aug-21 13:29N 40°50' E 014°16'0 0.0
2019-Aug-21 12:59N 40°50' E 014°16'0 0.0
2019-Aug-21 12:29N 40°50' E 014°16'0 0.0
2019-Aug-21 11:59N 40°50' E 014°16'0 0.0
2019-Aug-21 11:29N 40°50' E 014°16'0 0.0
2019-Aug-21 10:59N 40°50' E 014°16'0 0.0
2019-Aug-21 10:29N 40°50' E 014°16'0 0.0
2019-Aug-21 09:59N 40°50' E 014°16'0 0.0
2019-Aug-21 09:29N 40°50' E 014°16'0 0.0
2019-Aug-21 08:59N 40°50' E 014°16'0 0.0
2019-Aug-21 08:29N 40°50' E 014°16'0 0.0
2019-Aug-21 07:59N 40°50' E 014°16'0 0.0
2019-Aug-21 07:29N 40°50' E 014°16'0 0.0
2019-Aug-21 06:59N 40°50' E 014°16'0 0.0
2019-Aug-21 06:29N 40°50' E 014°16'0 0.0
2019-Aug-21 05:59N 40°50' E 014°16'0 0.0
2019-Aug-21 05:29N 40°50' E 014°16'0 0.0
2019-Aug-21 04:56N 40°50' E 014°16'0 0.0
2019-Aug-21 04:29N 40°50' E 014°16'0 0.0
2019-Aug-21 03:59N 40°50' E 014°16'0 0.4
2019-Aug-21 03:30N 40°50' E 014°16'2 5.0
2019-Aug-21 03:00N 40°48' E 014°17'510.5
2019-Aug-21 02:30N 40°43' E 014°15'816.4
2019-Aug-21 02:00N 40°36' E 014°10'816.2
2019-Aug-21 01:30N 40°28' E 014°11'917.0
2019-Aug-21 01:00N 40°20' E 014°15'917.1
2019-Aug-21 00:30N 40°12' E 014°21'917.3
2019-Aug-21 00:00N 40°05' E 014°25'917.3
2019-Aug-20 23:30N 39°57' E 014°30'917.2
2019-Aug-20 23:00N 39°49' E 014°35'2817.1
2019-Aug-20 21:23N 39°24' E 014°50'617.2
2019-Aug-20 21:00N 39°18' E 014°54'917.0
2019-Aug-20 20:30N 39°10' E 014°58'1317.1
2019-Aug-20 19:45N 38°58' E 015°04'517.4
2019-Aug-20 19:30N 38°54' E 015°07'613.1
2019-Aug-20 19:00N 38°48' E 015°10'0 0.4
2019-Aug-20 18:24N 38°48' E 015°10'3 8.1
2019-Aug-20 18:00N 38°45' E 015°12'917.7
2019-Aug-20 17:30N 38°39' E 015°19'918.6
2019-Aug-20 17:00N 38°32' E 015°27'918.8
2019-Aug-20 16:30N 38°25' E 015°35'816.4
2019-Aug-20 16:00N 38°19' E 015°42'612.8
2019-Aug-20 15:30N 38°14' E 015°37'714.4
2019-Aug-20 15:00N 38°07' E 015°36'916.9
2019-Aug-20 14:30N 37°58' E 015°36'816.3
2019-Aug-20 14:00N 37°53' E 015°44'917.0
2019-Aug-20 13:30N 37°51' E 015°54'4018.2
2019-Aug-20 11:19N 38°11' E 016°38'29115.8
2019-Aug-19 16:52N 43°01' E 016°24'59 4.1
2019-Aug-19 02:24N 43°38' E 015°20'719.0
2019-Aug-19 02:00N 43°41' E 015°10'919.1
2019-Aug-19 01:30N 43°44' E 014°58'919.0
2019-Aug-19 01:01N 43°48' E 014°47'1019.1
2019-Aug-19 00:30N 43°53' E 014°35'1019.0
2019-Aug-19 00:00N 43°58' E 014°23'1019.1
2019-Aug-18 23:30N 44°02' E 014°12'918.9
2019-Aug-18 23:01N 44°07' E 014°01'919.0
2019-Aug-18 22:31N 44°15' E 013°53'1019.0
2019-Aug-18 22:00N 44°23' E 013°46'918.8
2019-Aug-18 21:31N 44°31' E 013°39'918.8
2019-Aug-18 21:00N 44°39' E 013°32'918.7
2019-Aug-18 20:31N 44°47' E 013°24'919.0
2019-Aug-18 20:01N 44°54' E 013°16'918.9
2019-Aug-18 19:31N 45°01' E 013°07'1019.1
2019-Aug-18 19:01N 45°07' E 012°57'1019.2
2019-Aug-18 18:31N 45°14' E 012°47'918.8
2019-Aug-18 18:00N 45°19' E 012°36'713.4
2019-Aug-18 17:30N 45°24' E 012°29'4 8.6
2019-Aug-18 17:00N 45°26' E 012°24'2 4.2
2019-Aug-18 16:30N 45°26' E 012°21'2 3.4
2019-Aug-18 16:00N 45°26' E 012°18'0 0.7
2019-Aug-18 15:28N 45°26' E 012°18'0 0.0
2019-Aug-18 14:58N 45°26' E 012°18'0 0.0
2019-Aug-18 14:25N 45°26' E 012°18'0 0.0
2019-Aug-18 13:58N 45°26' E 012°18'0 0.0
2019-Aug-18 13:28N 45°26' E 012°18'0 0.0
2019-Aug-18 12:58N 45°26' E 012°18'0 0.0
2019-Aug-18 12:28N 45°26' E 012°18'0 0.0
2019-Aug-18 11:58N 45°26' E 012°18'0 0.0
2019-Aug-18 11:28N 45°26' E 012°18'0 0.0
2019-Aug-18 10:58N 45°26' E 012°18'0 0.0
2019-Aug-18 10:28N 45°26' E 012°18'0 0.0
2019-Aug-18 10:00N 45°26' E 012°18'1 1.7
2019-Aug-18 09:30N 45°26' E 012°19'2 4.4
2019-Aug-18 09:00N 45°25' E 012°22'3 5.7
2019-Aug-18 08:30N 45°25' E 012°26'2 3.9
2019-Aug-18 08:00N 45°24' E 012°29'2 1.8
2019-Aug-18 06:58N 45°24' E 012°32'0 0.1
2019-Aug-18 06:28N 45°24' E 012°32'0 0.0
2019-Aug-18 05:58N 45°24' E 012°32'0 0.0
2019-Aug-18 05:28N 45°24' E 012°32'0 0.0
2019-Aug-18 04:58N 45°24' E 012°32'0 0.0
2019-Aug-18 04:28N 45°24' E 012°32'0 0.0
2019-Aug-18 03:58N 45°24' E 012°32'0 0.1
2019-Aug-18 03:30N 45°24' E 012°32'4 8.3
2019-Aug-18 03:01N 45°20' E 012°32'5 9.7
2019-Aug-18 02:30N 45°15' E 012°35'713.2
2019-Aug-18 02:00N 45°11' E 012°42'714.6
2019-Aug-18 01:30N 45°07' E 012°50'713.1
2019-Aug-18 01:00N 45°01' E 012°55'3 6.4
2019-Aug-18 00:30N 44°58' E 012°56'0 0.7
2019-Aug-18 00:00N 44°58' E 012°56'0 0.5
2019-Aug-17 23:30N 44°58' E 012°55'3 5.8
2019-Aug-17 23:00N 44°55' E 012°56'714.5
2019-Aug-17 22:30N 44°49' E 013°00'714.7
2019-Aug-17 22:00N 44°42' E 013°04'714.9
2019-Aug-17 21:30N 44°34' E 013°07'815.6
2019-Aug-17 21:00N 44°27' E 013°10'815.7
2019-Aug-17 20:30N 44°20' E 013°14'815.6
2019-Aug-17 20:00N 44°14' E 013°22'815.6
2019-Aug-17 19:30N 44°10' E 013°30'815.7
2019-Aug-17 19:00N 44°04' E 013°39'816.1
2019-Aug-17 18:30N 43°59' E 013°47'1514.6
2019-Aug-17 17:30N 43°45' E 013°44'815.9
2019-Aug-17 17:00N 43°40' E 013°35'4 7.4
2019-Aug-17 16:26N 43°37' E 013°30'0 0.5
2019-Aug-17 15:58N 43°37' E 013°30'0 0.0
2019-Aug-17 15:25N 43°37' E 013°30'0 0.0
2019-Aug-17 14:58N 43°37' E 013°30'0 0.0
2019-Aug-17 11:43N 43°37' E 013°30'0 0.0
2019-Aug-17 11:13N 43°37' E 013°30'0 0.0
2019-Aug-17 10:49N 43°37' E 013°30'0 0.0
2019-Aug-17 08:43N 43°37' E 013°30'0 0.0
2019-Aug-17 07:58N 43°37' E 013°30'356 8.7
2019-Aug-15 15:17N 38°11' E 016°38'3718.7
2019-Aug-15 13:17N 37°51' E 015°58'518.2
2019-Aug-15 13:00N 37°50' E 015°52'917.6
2019-Aug-15 12:30N 37°52' E 015°41'918.3
2019-Aug-15 12:00N 37°60' E 015°34'816.4
2019-Aug-15 11:30N 38°08' E 015°35'4 6.9
2019-Aug-15 10:59N 38°12' E 015°33'0 0.0
2019-Aug-15 10:29N 38°12' E 015°33'0 0.0
2019-Aug-15 09:59N 38°12' E 015°33'0 0.0
2019-Aug-15 09:23N 38°12' E 015°33'0 0.0
2019-Aug-15 08:59N 38°12' E 015°33'0 0.0
2019-Aug-15 08:17N 38°12' E 015°33'0 0.0
2019-Aug-15 07:59N 38°12' E 015°33'0 0.0
2019-Aug-15 07:23N 38°12' E 015°33'0 0.0
2019-Aug-15 06:59N 38°12' E 015°33'0 0.0
2019-Aug-15 06:29N 38°12' E 015°33'0 0.0
2019-Aug-15 05:59N 38°12' E 015°33'0 0.0
2019-Aug-15 05:29N 38°12' E 015°33'0 0.0
2019-Aug-15 04:53N 38°12' E 015°33'0 0.3
2019-Aug-15 04:30N 38°12' E 015°34'510.1
2019-Aug-15 04:01N 38°15' E 015°38'612.5
2019-Aug-15 03:31N 38°21' E 015°39'612.9
2019-Aug-15 03:00N 38°27' E 015°35'815.7
2019-Aug-15 02:30N 38°34' E 015°30'815.6
2019-Aug-15 02:00N 38°41' E 015°25'815.3
2019-Aug-15 01:30N 38°48' E 015°22'714.5
2019-Aug-15 01:00N 38°55' E 015°18'7215.2
2019-Aug-14 20:14N 39°58' E 014°32'415.4
2019-Aug-14 20:00N 40°01' E 014°30'815.3
2019-Aug-14 19:31N 40°08' E 014°26'815.4
2019-Aug-14 19:01N 40°15' E 014°21'815.5
2019-Aug-14 18:31N 40°21' E 014°17'814.9
2019-Aug-14 17:59N 40°28' E 014°12'  

Dump ship's entire track history